sensor_id;sensor_type;location;lat;lon;timestamp;P1;durP1;ratioP1;P2;durP2;ratioP2
50779;SDS011;36748;37.428;-121.972;2023-07-22T00:01:11;15.38;;;5.88;;
50779;SDS011;36748;37.428;-121.972;2023-07-22T00:03:37;12.90;;;6.20;;
50779;SDS011;36748;37.428;-121.972;2023-07-22T00:06:04;16.38;;;6.63;;
50779;SDS011;36748;37.428;-121.972;2023-07-22T00:08:31;15.05;;;7.03;;
50779;SDS011;36748;37.428;-121.972;2023-07-22T00:10:58;17.83;;;6.93;;
50779;SDS011;36748;37.428;-121.972;2023-07-22T00:13:28;13.18;;;6.43;;
50779;SDS011;36748;37.428;-121.972;2023-07-22T00:15:54;18.80;;;7.03;;
50779;SDS011;36748;37.428;-121.972;2023-07-22T00:18:22;16.67;;;6.72;;
50779;SDS011;36748;37.428;-121.972;2023-07-22T00:20:49;15.02;;;6.53;;
50779;SDS011;36748;37.428;-121.972;2023-07-22T00:23:15;14.75;;;6.22;;
50779;SDS011;36748;37.428;-121.972;2023-07-22T00:25:42;14.63;;;6.55;;
50779;SDS011;36748;37.428;-121.972;2023-07-22T00:28:08;18.08;;;6.88;;
50779;SDS011;36748;37.428;-121.972;2023-07-22T00:30:35;15.55;;;6.45;;
50779;SDS011;36748;37.428;-121.972;2023-07-22T00:33:01;19.73;;;6.90;;
50779;SDS011;36748;37.428;-121.972;2023-07-22T00:35:27;13.25;;;6.30;;
50779;SDS011;36748;37.428;-121.972;2023-07-22T00:37:53;13.98;;;6.18;;
50779;SDS011;36748;37.428;-121.972;2023-07-22T00:40:20;18.25;;;6.07;;
50779;SDS011;36748;37.428;-121.972;2023-07-22T00:42:46;15.10;;;5.82;;
50779;SDS011;36748;37.428;-121.972;2023-07-22T00:45:12;14.90;;;6.38;;
50779;SDS011;36748;37.428;-121.972;2023-07-22T00:47:38;13.05;;;6.22;;
50779;SDS011;36748;37.428;-121.972;2023-07-22T00:50:06;16.30;;;6.25;;
50779;SDS011;36748;37.428;-121.972;2023-07-22T00:52:36;13.15;;;5.78;;
50779;SDS011;36748;37.428;-121.972;2023-07-22T00:55:04;12.55;;;5.60;;
50779;SDS011;36748;37.428;-121.972;2023-07-22T00:57:31;11.57;;;6.07;;
50779;SDS011;36748;37.428;-121.972;2023-07-22T00:59:57;14.77;;;6.18;;
50779;SDS011;36748;37.428;-121.972;2023-07-22T01:02:23;12.18;;;5.55;;
50779;SDS011;36748;37.428;-121.972;2023-07-22T01:04:50;15.45;;;5.95;;
50779;SDS011;36748;37.428;-121.972;2023-07-22T01:07:17;12.27;;;5.78;;
50779;SDS011;36748;37.428;-121.972;2023-07-22T01:09:43;12.63;;;5.57;;
50779;SDS011;36748;37.428;-121.972;2023-07-22T01:12:10;16.83;;;6.05;;
50779;SDS011;36748;37.428;-121.972;2023-07-22T01:14:37;13.10;;;5.60;;
50779;SDS011;36748;37.428;-121.972;2023-07-22T01:17:05;13.70;;;5.80;;
50779;SDS011;36748;37.428;-121.972;2023-07-22T01:19:33;12.68;;;4.72;;
50779;SDS011;36748;37.428;-121.972;2023-07-22T01:22:02;18.00;;;5.38;;
50779;SDS011;36748;37.428;-121.972;2023-07-22T01:24:30;11.13;;;5.30;;
50779;SDS011;36748;37.428;-121.972;2023-07-22T01:26:56;13.40;;;5.20;;
50779;SDS011;36748;37.428;-121.972;2023-07-22T01:29:23;10.55;;;4.97;;
50779;SDS011;36748;37.428;-121.972;2023-07-22T01:31:50;14.05;;;5.50;;
50779;SDS011;36748;37.428;-121.972;2023-07-22T01:34:17;16.73;;;5.50;;
50779;SDS011;36748;37.428;-121.972;2023-07-22T01:36:47;14.73;;;4.72;;
50779;SDS011;36748;37.428;-121.972;2023-07-22T01:39:14;11.40;;;4.68;;
50779;SDS011;36748;37.428;-121.972;2023-07-22T01:41:40;12.68;;;4.95;;
50779;SDS011;36748;37.428;-121.972;2023-07-22T01:44:06;18.90;;;5.75;;
50779;SDS011;36748;37.428;-121.972;2023-07-22T01:46:39;12.52;;;4.70;;
50779;SDS011;36748;37.428;-121.972;2023-07-22T01:49:07;11.38;;;5.03;;
50779;SDS011;36748;37.428;-121.972;2023-07-22T01:51:36;14.70;;;5.60;;
50779;SDS011;36748;37.428;-121.972;2023-07-22T01:54:11;11.02;;;4.97;;
50779;SDS011;36748;37.428;-121.972;2023-07-22T01:56:38;12.32;;;4.35;;
50779;SDS011;36748;37.428;-121.972;2023-07-22T01:59:05;10.15;;;4.72;;
50779;SDS011;36748;37.428;-121.972;2023-07-22T02:01:31;11.95;;;4.60;;
50779;SDS011;36748;37.428;-121.972;2023-07-22T02:03:58;13.00;;;5.03;;
50779;SDS011;36748;37.428;-121.972;2023-07-22T02:06:24;31.05;;;5.47;;
50779;SDS011;36748;37.428;-121.972;2023-07-22T02:08:51;23.42;;;5.28;;
50779;SDS011;36748;37.428;-121.972;2023-07-22T02:11:17;19.92;;;4.90;;
50779;SDS011;36748;37.428;-121.972;2023-07-22T02:13:44;18.92;;;4.68;;
50779;SDS011;36748;37.428;-121.972;2023-07-22T02:16:10;15.48;;;5.15;;
50779;SDS011;36748;37.428;-121.972;2023-07-22T02:18:39;19.88;;;5.15;;
50779;SDS011;36748;37.428;-121.972;2023-07-22T02:21:05;16.88;;;4.53;;
50779;SDS011;36748;37.428;-121.972;2023-07-22T02:23:32;14.95;;;4.38;;
50779;SDS011;36748;37.428;-121.972;2023-07-22T02:25:58;15.43;;;4.70;;
50779;SDS011;36748;37.428;-121.972;2023-07-22T02:28:24;22.52;;;5.40;;
50779;SDS011;36748;37.428;-121.972;2023-07-22T02:30:51;19.00;;;5.13;;
50779;SDS011;36748;37.428;-121.972;2023-07-22T02:33:18;19.38;;;5.47;;
50779;SDS011;36748;37.428;-121.972;2023-07-22T02:35:46;14.77;;;4.88;;
50779;SDS011;36748;37.428;-121.972;2023-07-22T02:38:13;14.35;;;5.07;;
50779;SDS011;36748;37.428;-121.972;2023-07-22T02:40:42;15.27;;;5.13;;
50779;SDS011;36748;37.428;-121.972;2023-07-22T02:43:08;15.57;;;5.50;;
50779;SDS011;36748;37.428;-121.972;2023-07-22T02:45:35;11.25;;;4.55;;
50779;SDS011;36748;37.428;-121.972;2023-07-22T02:48:02;13.60;;;4.80;;
50779;SDS011;36748;37.428;-121.972;2023-07-22T02:50:29;13.75;;;4.63;;
50779;SDS011;36748;37.428;-121.972;2023-07-22T02:52:55;26.38;;;5.20;;
50779;SDS011;36748;37.428;-121.972;2023-07-22T02:55:22;12.60;;;4.13;;
50779;SDS011;36748;37.428;-121.972;2023-07-22T02:57:48;19.38;;;4.72;;
50779;SDS011;36748;37.428;-121.972;2023-07-22T03:00:15;18.20;;;5.50;;
50779;SDS011;36748;37.428;-121.972;2023-07-22T03:02:52;21.42;;;5.72;;
50779;SDS011;36748;37.428;-121.972;2023-07-22T03:05:19;18.40;;;5.53;;
50779;SDS011;36748;37.428;-121.972;2023-07-22T03:07:46;17.67;;;5.00;;
50779;SDS011;36748;37.428;-121.972;2023-07-22T03:10:12;11.90;;;4.60;;
50779;SDS011;36748;37.428;-121.972;2023-07-22T03:12:38;15.40;;;4.90;;
50779;SDS011;36748;37.428;-121.972;2023-07-22T03:15:05;14.35;;;5.15;;
50779;SDS011;36748;37.428;-121.972;2023-07-22T03:17:37;14.70;;;4.85;;
50779;SDS011;36748;37.428;-121.972;2023-07-22T03:20:04;20.40;;;5.47;;
50779;SDS011;36748;37.428;-121.972;2023-07-22T03:22:39;17.35;;;5.00;;
50779;SDS011;36748;37.428;-121.972;2023-07-22T03:25:09;12.50;;;4.80;;
50779;SDS011;36748;37.428;-121.972;2023-07-22T03:27:36;14.98;;;4.68;;
50779;SDS011;36748;37.428;-121.972;2023-07-22T03:30:05;15.93;;;4.70;;
50779;SDS011;36748;37.428;-121.972;2023-07-22T03:32:36;14.00;;;4.47;;
50779;SDS011;36748;37.428;-121.972;2023-07-22T03:35:02;11.23;;;3.95;;
50779;SDS011;36748;37.428;-121.972;2023-07-22T03:37:29;12.55;;;4.85;;
50779;SDS011;36748;37.428;-121.972;2023-07-22T03:39:55;13.57;;;4.70;;
50779;SDS011;36748;37.428;-121.972;2023-07-22T03:42:21;9.20;;;4.60;;
50779;SDS011;36748;37.428;-121.972;2023-07-22T03:44:47;13.38;;;4.68;;
50779;SDS011;36748;37.428;-121.972;2023-07-22T03:47:14;11.70;;;4.35;;
50779;SDS011;36748;37.428;-121.972;2023-07-22T03:49:40;13.90;;;4.90;;
50779;SDS011;36748;37.428;-121.972;2023-07-22T03:52:06;16.42;;;4.22;;
50779;SDS011;36748;37.428;-121.972;2023-07-22T03:54:33;13.07;;;4.20;;
50779;SDS011;36748;37.428;-121.972;2023-07-22T03:56:59;8.40;;;4.05;;
50779;SDS011;36748;37.428;-121.972;2023-07-22T03:59:25;11.23;;;4.57;;
50779;SDS011;36748;37.428;-121.972;2023-07-22T04:01:53;12.13;;;4.43;;
50779;SDS011;36748;37.428;-121.972;2023-07-22T04:04:19;12.68;;;4.53;;
50779;SDS011;36748;37.428;-121.972;2023-07-22T04:06:46;11.48;;;4.40;;
50779;SDS011;36748;37.428;-121.972;2023-07-22T04:09:12;10.75;;;4.38;;
50779;SDS011;36748;37.428;-121.972;2023-07-22T04:11:38;11.48;;;4.53;;
50779;SDS011;36748;37.428;-121.972;2023-07-22T04:14:04;10.48;;;4.25;;
50779;SDS011;36748;37.428;-121.972;2023-07-22T04:16:30;13.43;;;4.82;;
50779;SDS011;36748;37.428;-121.972;2023-07-22T04:18:57;12.93;;;4.70;;
50779;SDS011;36748;37.428;-121.972;2023-07-22T04:21:23;9.88;;;4.38;;
50779;SDS011;36748;37.428;-121.972;2023-07-22T04:23:50;8.57;;;3.80;;
50779;SDS011;36748;37.428;-121.972;2023-07-22T04:26:16;16.35;;;4.68;;
50779;SDS011;36748;37.428;-121.972;2023-07-22T04:28:42;12.15;;;4.30;;
50779;SDS011;36748;37.428;-121.972;2023-07-22T04:31:08;14.95;;;4.00;;
50779;SDS011;36748;37.428;-121.972;2023-07-22T04:33:35;11.55;;;3.80;;
50779;SDS011;36748;37.428;-121.972;2023-07-22T04:36:01;11.85;;;4.05;;
50779;SDS011;36748;37.428;-121.972;2023-07-22T04:38:27;10.70;;;4.65;;
50779;SDS011;36748;37.428;-121.972;2023-07-22T04:40:53;15.20;;;4.28;;
50779;SDS011;36748;37.428;-121.972;2023-07-22T04:43:19;11.93;;;3.70;;
50779;SDS011;36748;37.428;-121.972;2023-07-22T04:45:46;14.40;;;4.30;;
50779;SDS011;36748;37.428;-121.972;2023-07-22T04:48:16;10.30;;;3.90;;
50779;SDS011;36748;37.428;-121.972;2023-07-22T04:50:44;20.20;;;4.32;;
50779;SDS011;36748;37.428;-121.972;2023-07-22T04:53:13;11.27;;;4.03;;
50779;SDS011;36748;37.428;-121.972;2023-07-22T04:55:40;15.82;;;4.60;;
50779;SDS011;36748;37.428;-121.972;2023-07-22T04:58:06;10.93;;;3.88;;
50779;SDS011;36748;37.428;-121.972;2023-07-22T05:00:36;11.45;;;4.28;;
50779;SDS011;36748;37.428;-121.972;2023-07-22T05:03:03;11.57;;;4.05;;
50779;SDS011;36748;37.428;-121.972;2023-07-22T05:05:30;8.73;;;3.85;;
50779;SDS011;36748;37.428;-121.972;2023-07-22T05:07:57;11.70;;;4.25;;
50779;SDS011;36748;37.428;-121.972;2023-07-22T05:10:23;15.82;;;4.47;;
50779;SDS011;36748;37.428;-121.972;2023-07-22T05:12:49;11.65;;;4.53;;
50779;SDS011;36748;37.428;-121.972;2023-07-22T05:15:15;9.40;;;3.60;;
50779;SDS011;36748;37.428;-121.972;2023-07-22T05:17:41;11.93;;;4.40;;
50779;SDS011;36748;37.428;-121.972;2023-07-22T05:20:08;11.82;;;3.95;;
50779;SDS011;36748;37.428;-121.972;2023-07-22T05:22:38;11.40;;;4.15;;
50779;SDS011;36748;37.428;-121.972;2023-07-22T05:25:05;13.95;;;4.35;;
50779;SDS011;36748;37.428;-121.972;2023-07-22T05:27:32;9.88;;;4.32;;
50779;SDS011;36748;37.428;-121.972;2023-07-22T05:29:58;13.13;;;4.60;;
50779;SDS011;36748;37.428;-121.972;2023-07-22T05:32:25;12.80;;;4.30;;
50779;SDS011;36748;37.428;-121.972;2023-07-22T05:34:52;12.70;;;4.00;;
50779;SDS011;36748;37.428;-121.972;2023-07-22T05:37:18;11.15;;;4.20;;
50779;SDS011;36748;37.428;-121.972;2023-07-22T05:39:44;17.17;;;4.35;;
50779;SDS011;36748;37.428;-121.972;2023-07-22T05:42:10;11.63;;;4.15;;
50779;SDS011;36748;37.428;-121.972;2023-07-22T05:44:37;12.95;;;4.50;;
50779;SDS011;36748;37.428;-121.972;2023-07-22T05:47:03;11.88;;;4.57;;
50779;SDS011;36748;37.428;-121.972;2023-07-22T05:49:29;11.32;;;4.28;;
50779;SDS011;36748;37.428;-121.972;2023-07-22T05:51:55;10.68;;;4.47;;
50779;SDS011;36748;37.428;-121.972;2023-07-22T05:54:21;10.23;;;3.95;;
50779;SDS011;36748;37.428;-121.972;2023-07-22T05:56:48;11.73;;;4.43;;
50779;SDS011;36748;37.428;-121.972;2023-07-22T05:59:15;12.70;;;4.28;;
50779;SDS011;36748;37.428;-121.972;2023-07-22T06:01:41;11.43;;;4.40;;
50779;SDS011;36748;37.428;-121.972;2023-07-22T06:04:07;12.85;;;3.92;;
50779;SDS011;36748;37.428;-121.972;2023-07-22T06:06:34;13.77;;;3.95;;
50779;SDS011;36748;37.428;-121.972;2023-07-22T06:09:01;15.23;;;5.15;;
50779;SDS011;36748;37.428;-121.972;2023-07-22T06:11:27;12.27;;;4.28;;
50779;SDS011;36748;37.428;-121.972;2023-07-22T06:13:54;11.00;;;4.40;;
50779;SDS011;36748;37.428;-121.972;2023-07-22T06:16:20;15.88;;;4.22;;
50779;SDS011;36748;37.428;-121.972;2023-07-22T06:18:46;11.52;;;4.07;;
50779;SDS011;36748;37.428;-121.972;2023-07-22T06:21:12;12.75;;;4.40;;
50779;SDS011;36748;37.428;-121.972;2023-07-22T06:23:39;14.35;;;4.10;;
50779;SDS011;36748;37.428;-121.972;2023-07-22T06:26:05;12.00;;;4.15;;
50779;SDS011;36748;37.428;-121.972;2023-07-22T06:28:31;13.70;;;4.20;;
50779;SDS011;36748;37.428;-121.972;2023-07-22T06:30:58;10.40;;;3.95;;
50779;SDS011;36748;37.428;-121.972;2023-07-22T06:33:24;10.88;;;3.83;;
50779;SDS011;36748;37.428;-121.972;2023-07-22T06:35:50;10.90;;;4.10;;
50779;SDS011;36748;37.428;-121.972;2023-07-22T06:38:16;12.10;;;4.03;;
50779;SDS011;36748;37.428;-121.972;2023-07-22T06:40:43;11.30;;;4.20;;
50779;SDS011;36748;37.428;-121.972;2023-07-22T06:43:09;14.13;;;4.03;;
50779;SDS011;36748;37.428;-121.972;2023-07-22T06:45:36;11.52;;;4.50;;
50779;SDS011;36748;37.428;-121.972;2023-07-22T06:48:02;15.27;;;4.68;;
50779;SDS011;36748;37.428;-121.972;2023-07-22T06:50:28;11.85;;;3.72;;
50779;SDS011;36748;37.428;-121.972;2023-07-22T06:52:55;10.60;;;4.20;;
50779;SDS011;36748;37.428;-121.972;2023-07-22T06:55:21;11.45;;;4.25;;
50779;SDS011;36748;37.428;-121.972;2023-07-22T06:57:48;11.63;;;4.07;;
50779;SDS011;36748;37.428;-121.972;2023-07-22T07:00:14;8.13;;;3.95;;
50779;SDS011;36748;37.428;-121.972;2023-07-22T07:02:41;13.48;;;4.47;;
50779;SDS011;36748;37.428;-121.972;2023-07-22T07:05:07;15.82;;;4.70;;
50779;SDS011;36748;37.428;-121.972;2023-07-22T07:07:33;9.95;;;4.03;;
50779;SDS011;36748;37.428;-121.972;2023-07-22T07:10:00;12.50;;;4.47;;
50779;SDS011;36748;37.428;-121.972;2023-07-22T07:12:26;12.13;;;4.35;;
50779;SDS011;36748;37.428;-121.972;2023-07-22T07:14:53;9.95;;;4.13;;
50779;SDS011;36748;37.428;-121.972;2023-07-22T07:17:19;11.77;;;4.15;;
50779;SDS011;36748;37.428;-121.972;2023-07-22T07:19:45;12.98;;;4.40;;
50779;SDS011;36748;37.428;-121.972;2023-07-22T07:22:12;14.68;;;4.30;;
50779;SDS011;36748;37.428;-121.972;2023-07-22T07:24:38;12.70;;;4.63;;
50779;SDS011;36748;37.428;-121.972;2023-07-22T07:27:04;10.00;;;3.97;;
50779;SDS011;36748;37.428;-121.972;2023-07-22T07:29:30;11.90;;;4.53;;
50779;SDS011;36748;37.428;-121.972;2023-07-22T07:31:57;15.48;;;4.93;;
50779;SDS011;36748;37.428;-121.972;2023-07-22T07:34:23;13.90;;;4.90;;
50779;SDS011;36748;37.428;-121.972;2023-07-22T07:36:49;11.18;;;4.60;;
50779;SDS011;36748;37.428;-121.972;2023-07-22T07:39:15;12.95;;;4.85;;
50779;SDS011;36748;37.428;-121.972;2023-07-22T07:41:41;15.48;;;4.28;;
50779;SDS011;36748;37.428;-121.972;2023-07-22T07:44:07;13.43;;;4.70;;
50779;SDS011;36748;37.428;-121.972;2023-07-22T07:46:34;14.05;;;4.65;;
50779;SDS011;36748;37.428;-121.972;2023-07-22T07:49:00;12.55;;;4.97;;
50779;SDS011;36748;37.428;-121.972;2023-07-22T07:51:28;12.20;;;4.15;;
50779;SDS011;36748;37.428;-121.972;2023-07-22T07:53:56;14.95;;;4.68;;
50779;SDS011;36748;37.428;-121.972;2023-07-22T07:56:23;11.60;;;5.03;;
50779;SDS011;36748;37.428;-121.972;2023-07-22T07:58:51;13.32;;;4.55;;
50779;SDS011;36748;37.428;-121.972;2023-07-22T08:01:18;11.75;;;4.30;;
50779;SDS011;36748;37.428;-121.972;2023-07-22T08:03:44;14.50;;;4.47;;
50779;SDS011;36748;37.428;-121.972;2023-07-22T08:06:11;11.40;;;4.47;;
50779;SDS011;36748;37.428;-121.972;2023-07-22T08:08:38;10.10;;;4.28;;
50779;SDS011;36748;37.428;-121.972;2023-07-22T08:13:35;12.30;;;4.03;;
50779;SDS011;36748;37.428;-121.972;2023-07-22T08:16:02;17.67;;;5.13;;
50779;SDS011;36748;37.428;-121.972;2023-07-22T08:18:32;14.73;;;5.15;;
50779;SDS011;36748;37.428;-121.972;2023-07-22T08:21:00;16.40;;;4.80;;
50779;SDS011;36748;37.428;-121.972;2023-07-22T08:23:28;12.63;;;4.35;;
50779;SDS011;36748;37.428;-121.972;2023-07-22T08:25:54;12.25;;;4.40;;
50779;SDS011;36748;37.428;-121.972;2023-07-22T08:28:20;14.57;;;4.50;;
50779;SDS011;36748;37.428;-121.972;2023-07-22T08:30:49;10.40;;;3.92;;
50779;SDS011;36748;37.428;-121.972;2023-07-22T08:33:16;13.32;;;4.65;;
50779;SDS011;36748;37.428;-121.972;2023-07-22T08:35:42;12.85;;;4.43;;
50779;SDS011;36748;37.428;-121.972;2023-07-22T08:38:08;11.65;;;4.47;;
50779;SDS011;36748;37.428;-121.972;2023-07-22T08:43:02;12.70;;;4.65;;
50779;SDS011;36748;37.428;-121.972;2023-07-22T08:45:30;11.30;;;4.50;;
50779;SDS011;36748;37.428;-121.972;2023-07-22T08:47:58;9.85;;;4.40;;
50779;SDS011;36748;37.428;-121.972;2023-07-22T08:50:26;12.63;;;4.47;;
50779;SDS011;36748;37.428;-121.972;2023-07-22T08:52:55;10.57;;;4.30;;
50779;SDS011;36748;37.428;-121.972;2023-07-22T08:55:23;10.02;;;4.60;;
50779;SDS011;36748;37.428;-121.972;2023-07-22T08:57:49;10.90;;;4.38;;
50779;SDS011;36748;37.428;-121.972;2023-07-22T09:00:16;9.25;;;4.00;;
50779;SDS011;36748;37.428;-121.972;2023-07-22T09:02:43;10.65;;;4.10;;
50779;SDS011;36748;37.428;-121.972;2023-07-22T09:05:10;11.70;;;4.70;;
50779;SDS011;36748;37.428;-121.972;2023-07-22T09:07:37;9.85;;;4.25;;
50779;SDS011;36748;37.428;-121.972;2023-07-22T09:10:04;11.30;;;4.30;;
50779;SDS011;36748;37.428;-121.972;2023-07-22T09:12:33;13.55;;;4.65;;
50779;SDS011;36748;37.428;-121.972;2023-07-22T09:15:08;11.77;;;4.38;;
50779;SDS011;36748;37.428;-121.972;2023-07-22T09:17:36;10.48;;;4.40;;
50779;SDS011;36748;37.428;-121.972;2023-07-22T09:20:06;12.25;;;4.53;;
50779;SDS011;36748;37.428;-121.972;2023-07-22T09:22:33;13.27;;;4.47;;
50779;SDS011;36748;37.428;-121.972;2023-07-22T09:25:19;11.57;;;4.28;;
50779;SDS011;36748;37.428;-121.972;2023-07-22T09:27:46;11.32;;;4.30;;
50779;SDS011;36748;37.428;-121.972;2023-07-22T09:32:53;12.68;;;4.38;;
50779;SDS011;36748;37.428;-121.972;2023-07-22T09:35:20;11.93;;;4.57;;
50779;SDS011;36748;37.428;-121.972;2023-07-22T09:37:47;11.38;;;4.53;;
50779;SDS011;36748;37.428;-121.972;2023-07-22T09:40:14;9.75;;;4.22;;
50779;SDS011;36748;37.428;-121.972;2023-07-22T09:42:45;10.65;;;4.47;;
50779;SDS011;36748;37.428;-121.972;2023-07-22T09:45:12;10.60;;;4.60;;
50779;SDS011;36748;37.428;-121.972;2023-07-22T09:47:40;9.05;;;3.88;;
50779;SDS011;36748;37.428;-121.972;2023-07-22T09:50:08;12.27;;;4.20;;
50779;SDS011;36748;37.428;-121.972;2023-07-22T09:52:48;10.10;;;4.50;;
50779;SDS011;36748;37.428;-121.972;2023-07-22T09:55:19;9.18;;;4.38;;
50779;SDS011;36748;37.428;-121.972;2023-07-22T09:57:50;10.93;;;4.63;;
50779;SDS011;36748;37.428;-121.972;2023-07-22T10:00:36;11.40;;;5.03;;
50779;SDS011;36748;37.428;-121.972;2023-07-22T10:03:03;12.45;;;4.60;;
50779;SDS011;36748;37.428;-121.972;2023-07-22T10:05:30;15.32;;;4.95;;
50779;SDS011;36748;37.428;-121.972;2023-07-22T10:08:00;11.20;;;4.75;;
50779;SDS011;36748;37.428;-121.972;2023-07-22T10:10:34;12.63;;;4.88;;
50779;SDS011;36748;37.428;-121.972;2023-07-22T10:13:02;11.85;;;4.60;;
50779;SDS011;36748;37.428;-121.972;2023-07-22T10:15:29;11.45;;;4.25;;
50779;SDS011;36748;37.428;-121.972;2023-07-22T10:17:56;11.40;;;4.38;;
50779;SDS011;36748;37.428;-121.972;2023-07-22T10:20:23;11.52;;;4.45;;
50779;SDS011;36748;37.428;-121.972;2023-07-22T10:22:50;10.60;;;4.35;;
50779;SDS011;36748;37.428;-121.972;2023-07-22T10:25:17;10.93;;;4.53;;
50779;SDS011;36748;37.428;-121.972;2023-07-22T10:27:44;10.65;;;4.32;;
50779;SDS011;36748;37.428;-121.972;2023-07-22T10:30:12;8.82;;;4.25;;
50779;SDS011;36748;37.428;-121.972;2023-07-22T10:32:40;11.13;;;4.15;;
50779;SDS011;36748;37.428;-121.972;2023-07-22T10:35:10;11.00;;;4.32;;
50779;SDS011;36748;37.428;-121.972;2023-07-22T10:37:38;8.73;;;4.10;;
50779;SDS011;36748;37.428;-121.972;2023-07-22T10:45:26;8.73;;;3.70;;
50779;SDS011;36748;37.428;-121.972;2023-07-22T10:48:10;10.65;;;4.22;;
50779;SDS011;36748;37.428;-121.972;2023-07-22T10:50:44;13.10;;;4.57;;
50779;SDS011;36748;37.428;-121.972;2023-07-22T10:56:11;12.50;;;4.60;;
50779;SDS011;36748;37.428;-121.972;2023-07-22T11:01:21;9.57;;;3.92;;
50779;SDS011;36748;37.428;-121.972;2023-07-22T11:14:52;11.27;;;4.07;;
50779;SDS011;36748;37.428;-121.972;2023-07-22T11:17:27;11.35;;;4.57;;
50779;SDS011;36748;37.428;-121.972;2023-07-22T11:19:59;7.82;;;3.90;;
50779;SDS011;36748;37.428;-121.972;2023-07-22T11:22:26;9.50;;;3.83;;
50779;SDS011;36748;37.428;-121.972;2023-07-22T11:24:56;9.90;;;4.10;;
50779;SDS011;36748;37.428;-121.972;2023-07-22T11:27:25;13.27;;;4.82;;
50779;SDS011;36748;37.428;-121.972;2023-07-22T11:29:52;12.02;;;4.45;;
50779;SDS011;36748;37.428;-121.972;2023-07-22T11:32:18;11.60;;;4.50;;
50779;SDS011;36748;37.428;-121.972;2023-07-22T11:34:50;11.43;;;4.75;;
50779;SDS011;36748;37.428;-121.972;2023-07-22T11:37:18;13.63;;;4.65;;
50779;SDS011;36748;37.428;-121.972;2023-07-22T11:39:46;9.77;;;4.00;;
50779;SDS011;36748;37.428;-121.972;2023-07-22T11:42:12;11.68;;;4.40;;
50779;SDS011;36748;37.428;-121.972;2023-07-22T11:44:38;11.30;;;4.30;;
50779;SDS011;36748;37.428;-121.972;2023-07-22T11:47:05;11.23;;;4.20;;
50779;SDS011;36748;37.428;-121.972;2023-07-22T11:49:36;11.07;;;4.72;;
50779;SDS011;36748;37.428;-121.972;2023-07-22T11:52:07;11.90;;;4.10;;
50779;SDS011;36748;37.428;-121.972;2023-07-22T11:54:35;10.45;;;4.05;;
50779;SDS011;36748;37.428;-121.972;2023-07-22T11:57:22;10.70;;;4.47;;
50779;SDS011;36748;37.428;-121.972;2023-07-22T11:59:52;14.07;;;5.15;;
50779;SDS011;36748;37.428;-121.972;2023-07-22T12:02:29;10.50;;;4.70;;
50779;SDS011;36748;37.428;-121.972;2023-07-22T12:05:01;14.75;;;4.93;;
50779;SDS011;36748;37.428;-121.972;2023-07-22T12:07:31;13.93;;;5.18;;
50779;SDS011;36748;37.428;-121.972;2023-07-22T12:09:59;9.18;;;3.55;;
50779;SDS011;36748;37.428;-121.972;2023-07-22T12:12:33;9.15;;;4.03;;
50779;SDS011;36748;37.428;-121.972;2023-07-22T12:20:15;10.23;;;4.38;;
50779;SDS011;36748;37.428;-121.972;2023-07-22T12:22:42;11.60;;;4.30;;
50779;SDS011;36748;37.428;-121.972;2023-07-22T12:25:08;11.50;;;4.63;;
50779;SDS011;36748;37.428;-121.972;2023-07-22T12:27:36;10.43;;;4.40;;
50779;SDS011;36748;37.428;-121.972;2023-07-22T12:30:02;13.25;;;4.88;;
50779;SDS011;36748;37.428;-121.972;2023-07-22T12:32:29;9.00;;;4.30;;
50779;SDS011;36748;37.428;-121.972;2023-07-22T12:35:15;9.88;;;4.20;;
50779;SDS011;36748;37.428;-121.972;2023-07-22T12:37:42;10.95;;;4.50;;
50779;SDS011;36748;37.428;-121.972;2023-07-22T12:40:08;9.68;;;4.50;;
50779;SDS011;36748;37.428;-121.972;2023-07-22T12:42:37;10.77;;;4.60;;
50779;SDS011;36748;37.428;-121.972;2023-07-22T12:45:04;10.27;;;4.60;;
50779;SDS011;36748;37.428;-121.972;2023-07-22T12:47:31;9.93;;;3.85;;
50779;SDS011;36748;37.428;-121.972;2023-07-22T12:49:57;10.50;;;4.28;;
50779;SDS011;36748;37.428;-121.972;2023-07-22T12:52:23;9.50;;;3.90;;
50779;SDS011;36748;37.428;-121.972;2023-07-22T12:54:49;9.00;;;3.90;;
50779;SDS011;36748;37.428;-121.972;2023-07-22T12:57:16;9.35;;;4.07;;
50779;SDS011;36748;37.428;-121.972;2023-07-22T12:59:42;9.18;;;4.00;;
50779;SDS011;36748;37.428;-121.972;2023-07-22T13:02:08;9.98;;;4.35;;
50779;SDS011;36748;37.428;-121.972;2023-07-22T13:04:34;9.27;;;4.20;;
50779;SDS011;36748;37.428;-121.972;2023-07-22T13:07:00;14.05;;;4.40;;
50779;SDS011;36748;37.428;-121.972;2023-07-22T13:09:27;13.20;;;5.00;;
50779;SDS011;36748;37.428;-121.972;2023-07-22T13:11:53;10.95;;;4.10;;
50779;SDS011;36748;37.428;-121.972;2023-07-22T13:14:19;10.38;;;4.10;;
50779;SDS011;36748;37.428;-121.972;2023-07-22T13:16:46;13.50;;;4.45;;
50779;SDS011;36748;37.428;-121.972;2023-07-22T13:19:12;15.07;;;5.00;;
50779;SDS011;36748;37.428;-121.972;2023-07-22T13:21:38;17.55;;;5.10;;
50779;SDS011;36748;37.428;-121.972;2023-07-22T13:24:04;14.50;;;5.45;;
50779;SDS011;36748;37.428;-121.972;2023-07-22T13:26:31;19.63;;;4.93;;
50779;SDS011;36748;37.428;-121.972;2023-07-22T13:28:57;12.13;;;4.93;;
50779;SDS011;36748;37.428;-121.972;2023-07-22T13:31:23;13.18;;;4.45;;
50779;SDS011;36748;37.428;-121.972;2023-07-22T13:33:49;13.63;;;4.60;;
50779;SDS011;36748;37.428;-121.972;2023-07-22T13:36:15;9.70;;;4.13;;
50779;SDS011;36748;37.428;-121.972;2023-07-22T13:38:42;11.27;;;4.40;;
50779;SDS011;36748;37.428;-121.972;2023-07-22T13:41:08;14.70;;;4.43;;
50779;SDS011;36748;37.428;-121.972;2023-07-22T13:43:34;12.23;;;4.10;;
50779;SDS011;36748;37.428;-121.972;2023-07-22T13:46:00;13.45;;;4.25;;
50779;SDS011;36748;37.428;-121.972;2023-07-22T13:48:26;9.95;;;4.30;;
50779;SDS011;36748;37.428;-121.972;2023-07-22T13:50:53;11.23;;;4.40;;
50779;SDS011;36748;37.428;-121.972;2023-07-22T13:53:19;11.07;;;4.68;;
50779;SDS011;36748;37.428;-121.972;2023-07-22T13:55:45;12.50;;;4.60;;
50779;SDS011;36748;37.428;-121.972;2023-07-22T13:58:12;11.57;;;4.28;;
50779;SDS011;36748;37.428;-121.972;2023-07-22T14:00:38;13.05;;;4.50;;
50779;SDS011;36748;37.428;-121.972;2023-07-22T14:03:04;18.08;;;4.53;;
50779;SDS011;36748;37.428;-121.972;2023-07-22T14:05:30;11.45;;;4.80;;
50779;SDS011;36748;37.428;-121.972;2023-07-22T14:07:56;12.27;;;4.38;;
50779;SDS011;36748;37.428;-121.972;2023-07-22T14:10:23;12.48;;;5.07;;
50779;SDS011;36748;37.428;-121.972;2023-07-22T14:12:49;27.02;;;4.75;;
50779;SDS011;36748;37.428;-121.972;2023-07-22T14:15:15;26.58;;;5.68;;
50779;SDS011;36748;37.428;-121.972;2023-07-22T14:17:42;19.90;;;5.65;;
50779;SDS011;36748;37.428;-121.972;2023-07-22T14:20:09;23.38;;;5.60;;
50779;SDS011;36748;37.428;-121.972;2023-07-22T14:22:37;16.45;;;5.22;;
50779;SDS011;36748;37.428;-121.972;2023-07-22T14:25:03;19.88;;;5.05;;
50779;SDS011;36748;37.428;-121.972;2023-07-22T14:27:30;17.73;;;5.78;;
50779;SDS011;36748;37.428;-121.972;2023-07-22T14:29:56;14.23;;;4.90;;
50779;SDS011;36748;37.428;-121.972;2023-07-22T14:32:22;19.83;;;4.68;;
50779;SDS011;36748;37.428;-121.972;2023-07-22T14:34:48;18.17;;;5.05;;